KBPI/BPI METAR and TAF weather

Enter ICAO airport designator
Station Type Date Time Source
KBPI METAR 2020/04/06 08:53 UTC NOAA

KBPI 060853Z AUTO 35007KT 10SM FEW080 M03/M03 A2980 RMK AO2 SLP065 T10281033 50000


Station Type Date Time Source
KBPI Decoded METAR 2020/04/06 08:53 UTC NOAA

BIG PINEY-MARBLETON AIRPORT, WY, United States (KBPI) 42-35N 110-06W 2117M
Apr 06, 2020 - 04:53 AM EDT / 2020.04.06 0853 UTC
Wind: from the N (350 degrees) at 8 MPH (7 KT):0
Visibility: 10 mile(s):0
Sky conditions: mostly clear
Temperature: 27.0 F (-2.8 C)
Windchill: 19 F (-7 C):1
Dew Point: 26.1 F (-3.3 C)
Relative Humidity: 96%
Pressure (altimeter): 29.8 in. Hg (1009 hPa)
Pressure tendency: 0.00 inches (0.0 hPa) higher than three hours ago
ob: KBPI 060853Z AUTO 35007KT 10SM FEW080 M03/M03 A2980 RMK AO2 SLP065 T10281033 50000
cycle: 9

Station Type Date Time Source
KBPI TAF 2020/04/06 06:30 UTC NOAA

TAF KBPI 060529Z 0606/0706 VRB05KT P6SM SCT050 BKN080
FM061800 25012G20KT P6SM VCSH SCT025 BKN040
FM062200 26016G26KT P6SM -SHRA OVC035
FM070200 25005KT P6SM BKN050

Example: see airport list